Time;durP1;ratioP1;P1;durP2;ratioP2;P2;SDS_P1;SDS_P2;PMS_P1;PMS_P2;Temp;Humidity;BMP_temperature;BMP_pressure;BME280_temperature;BME280_humidity;BME280_pressure;Samples;Min_cycle;Max_cycle;Signal;HPM_P1;HPM_P2
2022/10/17 00:00:48;;;;;;;1.88;1.15;;;;;;;;;;4923520;29;20419;-87
2022/10/17 00:03:14;;;;;;;4.03;1.30;;;;;;;;;;4924514;29;20044;-88
2022/10/17 00:05:42;;;;;;;2.22;1.17;;;;;;;;;;4924118;29;20067;-88
2022/10/17 00:08:10;;;;;;;2.42;1.20;;;;;;;;;;4924025;29;20044;-88
2022/10/17 00:10:36;;;;;;;1.50;1.17;;;;;;;;;;4924676;29;20036;-88
2022/10/17 00:13:02;;;;;;;2.33;1.20;;;;;;;;;;4923882;29;20042;-87
2022/10/17 00:15:28;;;;;;;3.17;1.20;;;;;;;;;;4925294;29;20103;-87
2022/10/17 00:17:53;;;;;;;2.47;1.33;;;;;;;;;;4923078;29;20036;-87
2022/10/17 00:20:18;;;;;;;4.35;1.40;;;;;;;;;;4923125;29;20111;-87
2022/10/17 00:22:44;;;;;;;4.35;1.30;;;;;;;;;;4923017;29;20494;-88
2022/10/17 00:25:11;;;;;;;2.58;1.30;;;;;;;;;;4922801;29;20098;-87
2022/10/17 00:27:40;;;;;;;3.85;1.55;;;;;;;;;;4924737;29;20465;-87
2022/10/17 00:30:10;;;;;;;1.48;1.20;;;;;;;;;;4922413;29;20107;-87
2022/10/17 00:32:35;;;;;;;1.75;1.20;;;;;;;;;;4922160;29;20399;-88
2022/10/17 00:35:01;;;;;;;3.67;1.40;;;;;;;;;;4922275;29;20537;-87
2022/10/17 00:37:26;;;;;;;6.00;1.42;;;;;;;;;;4923910;29;20059;-88
2022/10/17 00:39:53;;;;;;;2.17;1.30;;;;;;;;;;4922406;29;20620;-88
2022/10/17 00:42:18;;;;;;;4.25;1.30;;;;;;;;;;4922345;29;20040;-87
2022/10/17 00:44:46;;;;;;;1.80;1.20;;;;;;;;;;4922734;29;20136;-89
2022/10/17 00:47:15;;;;;;;4.13;1.40;;;;;;;;;;4922105;29;20042;-87
2022/10/17 00:49:41;;;;;;;4.35;1.40;;;;;;;;;;4922037;29;20046;-87
2022/10/17 00:52:20;;;;;;;3.58;1.38;;;;;;;;;;4924196;29;20032;-87
2022/10/17 00:54:52;;;;;;;2.55;1.33;;;;;;;;;;4922794;29;20055;-87
2022/10/17 00:57:18;;;;;;;3.35;1.30;;;;;;;;;;4923706;29;20071;-88
2022/10/17 00:59:48;;;;;;;2.78;1.30;;;;;;;;;;4922159;29;20024;-88
2022/10/17 01:02:17;;;;;;;3.58;1.77;;;;;;;;;;4922656;29;20047;-87
2022/10/17 01:04:46;;;;;;;2.20;1.40;;;;;;;;;;4922556;29;20099;-87
2022/10/17 01:07:11;;;;;;;4.30;1.50;;;;;;;;;;4923284;29;20131;-87
2022/10/17 01:09:38;;;;;;;4.05;1.42;;;;;;;;;;4921964;29;20687;-87
2022/10/17 01:12:43;;;;;;;7.15;1.58;;;;;;;;;;4921982;29;20159;-87
2022/10/17 01:15:33;;;;;;;2.38;1.30;;;;;;;;;;4923304;29;20055;-88
2022/10/17 01:18:17;;;;;;;2.30;1.30;;;;;;;;;;4922545;29;20059;-87
2022/10/17 01:21:12;;;;;;;3.55;1.60;;;;;;;;;;4922825;29;20032;-87
2022/10/17 01:23:48;;;;;;;3.67;1.40;;;;;;;;;;4921467;29;20047;-87
2022/10/17 01:26:56;;;;;;;3.67;1.60;;;;;;;;;;4923284;29;20044;-87
2022/10/17 01:29:33;;;;;;;1.88;1.52;;;;;;;;;;4903912;29;20055;-87
2022/10/17 01:31:59;;;;;;;1.90;1.40;;;;;;;;;;4922385;29;20029;-88
2022/10/17 01:34:37;;;;;;;3.47;1.60;;;;;;;;;;4921995;29;20080;-87
2022/10/17 01:37:32;;;;;;;3.42;1.58;;;;;;;;;;4922841;29;20032;-87
2022/10/17 01:40:30;;;;;;;2.38;1.45;;;;;;;;;;4906410;29;20040;-87
2022/10/17 01:43:10;;;;;;;5.93;1.60;;;;;;;;;;4919253;29;20051;-88
2022/10/17 01:45:45;;;;;;;3.63;1.70;;;;;;;;;;4922514;29;20040;-87
2022/10/17 01:48:24;;;;;;;3.03;1.67;;;;;;;;;;4922055;29;20044;-87
2022/10/17 01:50:53;;;;;;;2.50;1.65;;;;;;;;;;4922752;29;20047;-87
2022/10/17 01:53:33;;;;;;;4.30;1.60;;;;;;;;;;4922604;29;20543;-87
2022/10/17 01:56:02;;;;;;;2.83;1.50;;;;;;;;;;4923323;29;20043;-88
2022/10/17 01:58:32;;;;;;;4.30;1.60;;;;;;;;;;4922523;29;20084;-87
2022/10/17 02:01:01;;;;;;;3.88;1.65;;;;;;;;;;4922314;29;20063;-88
2022/10/17 02:03:33;;;;;;;3.80;1.60;;;;;;;;;;4921499;29;20037;-88
2022/10/17 02:05:59;;;;;;;3.97;1.55;;;;;;;;;;4921760;29;20036;-87
2022/10/17 02:08:39;;;;;;;2.25;1.60;;;;;;;;;;4921698;29;20052;-87
2022/10/17 02:11:13;;;;;;;4.60;1.60;;;;;;;;;;4923908;29;20058;-87
2022/10/17 02:13:51;;;;;;;3.03;1.40;;;;;;;;;;4926389;29;20029;-87
2022/10/17 02:16:37;;;;;;;3.42;1.50;;;;;;;;;;4925816;29;20044;-88
2022/10/17 02:19:11;;;;;;;2.40;1.60;;;;;;;;;;4910244;29;20055;-88
2022/10/17 02:21:54;;;;;;;3.03;1.60;;;;;;;;;;4925683;29;20079;-87
2022/10/17 02:24:51;;;;;;;2.72;1.40;;;;;;;;;;4925080;29;20048;-87
2022/10/17 02:27:24;;;;;;;2.10;1.50;;;;;;;;;;4920269;29;20055;-88
2022/10/17 02:29:59;;;;;;;5.10;1.58;;;;;;;;;;4926577;29;20061;-87
2022/10/17 02:32:43;;;;;;;2.75;1.50;;;;;;;;;;4925368;29;20042;-87
2022/10/17 02:35:12;;;;;;;3.92;1.65;;;;;;;;;;4926880;29;20046;-88
2022/10/17 02:37:41;;;;;;;4.18;1.77;;;;;;;;;;4925486;29;20395;-87
2022/10/17 02:40:09;;;;;;;4.85;1.63;;;;;;;;;;4925631;29;20048;-88
2022/10/17 02:42:38;;;;;;;3.83;1.58;;;;;;;;;;4925049;29;20071;-87
2022/10/17 02:45:05;;;;;;;1.95;1.55;;;;;;;;;;4925099;29;20028;-88
2022/10/17 02:47:35;;;;;;;2.50;1.60;;;;;;;;;;4925517;29;20043;-87
2022/10/17 02:50:01;;;;;;;3.65;1.50;;;;;;;;;;4925186;29;20040;-87
2022/10/17 02:52:44;;;;;;;3.05;1.52;;;;;;;;;;4924300;29;20036;-87
2022/10/17 02:55:18;;;;;;;2.53;1.58;;;;;;;;;;4924064;29;20394;-87
2022/10/17 02:57:59;;;;;;;5.07;1.50;;;;;;;;;;4924894;29;20068;-87
2022/10/17 03:00:26;;;;;;;2.78;1.60;;;;;;;;;;4925311;29;20035;-88
2022/10/17 03:02:53;;;;;;;3.15;1.60;;;;;;;;;;4925741;29;20044;-87
2022/10/17 03:05:24;;;;;;;2.60;1.48;;;;;;;;;;4926781;29;20032;-87
2022/10/17 03:07:50;;;;;;;2.75;1.80;;;;;;;;;;4924389;29;20032;-87
2022/10/17 03:10:16;;;;;;;4.28;1.40;;;;;;;;;;4925610;29;20643;-87
2022/10/17 03:12:42;;;;;;;7.60;1.67;;;;;;;;;;4925104;29;20032;-88
2022/10/17 03:15:09;;;;;;;2.10;1.60;;;;;;;;;;4924219;29;20512;-87
2022/10/17 03:17:35;;;;;;;6.63;1.90;;;;;;;;;;4924947;29;20039;-87
2022/10/17 03:20:01;;;;;;;4.18;1.80;;;;;;;;;;4924057;29;20052;-87
2022/10/17 03:22:28;;;;;;;2.20;1.58;;;;;;;;;;4924162;29;20095;-88
2022/10/17 03:24:55;;;;;;;5.72;1.60;;;;;;;;;;4924365;29;20039;-87
2022/10/17 03:27:20;;;;;;;5.72;1.65;;;;;;;;;;4924532;29;20040;-88
2022/10/17 03:29:46;;;;;;;2.63;1.60;;;;;;;;;;4924959;29;20036;-87
2022/10/17 03:32:13;;;;;;;3.40;1.60;;;;;;;;;;4924105;29;20119;-87
2022/10/17 03:34:39;;;;;;;4.07;1.63;;;;;;;;;;4924208;29;20032;-88
2022/10/17 03:37:05;;;;;;;5.10;1.60;;;;;;;;;;4924051;29;20036;-87
2022/10/17 03:39:32;;;;;;;3.65;1.70;;;;;;;;;;4924691;29;20131;-87
2022/10/17 03:41:58;;;;;;;2.45;1.80;;;;;;;;;;4925238;29;20051;-87
2022/10/17 03:44:23;;;;;;;2.10;1.63;;;;;;;;;;4923732;29;20453;-88
2022/10/17 03:46:49;;;;;;;6.97;3.90;;;;;;;;;;4923639;29;20051;-88
2022/10/17 03:49:15;;;;;;;5.57;3.40;;;;;;;;;;4923943;29;20044;-87
2022/10/17 03:51:40;;;;;;;8.60;3.90;;;;;;;;;;4925364;29;20032;-87
2022/10/17 03:54:11;;;;;;;2.83;1.85;;;;;;;;;;4923041;29;20069;-88
2022/10/17 03:56:36;;;;;;;3.70;1.80;;;;;;;;;;4916870;29;20040;-88
2022/10/17 03:59:05;;;;;;;4.68;1.90;;;;;;;;;;4917176;29;20036;-88
2022/10/17 04:01:34;;;;;;;3.25;1.80;;;;;;;;;;4917388;29;20036;-88
2022/10/17 04:03:59;;;;;;;3.17;1.75;;;;;;;;;;4917266;29;20418;-87
2022/10/17 04:06:29;;;;;;;7.38;2.17;;;;;;;;;;4918555;29;20034;-88
2022/10/17 04:08:55;;;;;;;4.85;1.90;;;;;;;;;;4901418;29;20409;-88
2022/10/17 04:11:25;;;;;;;4.63;1.90;;;;;;;;;;4918295;29;20024;-88
2022/10/17 04:13:55;;;;;;;2.85;1.65;;;;;;;;;;4916663;29;20042;-88
2022/10/17 04:16:22;;;;;;;3.35;1.88;;;;;;;;;;4916753;29;20063;-88
2022/10/17 04:18:58;;;;;;;3.03;1.88;;;;;;;;;;4916615;29;20092;-88
2022/10/17 04:21:27;;;;;;;4.00;1.80;;;;;;;;;;4916574;29;20043;-88
2022/10/17 04:23:55;;;;;;;3.22;1.70;;;;;;;;;;4916813;29;20032;-88
2022/10/17 04:26:35;;;;;;;4.53;2.05;;;;;;;;;;4916889;29;20067;-88
2022/10/17 04:29:01;;;;;;;2.70;1.90;;;;;;;;;;4916753;29;20072;-88
2022/10/17 04:31:26;;;;;;;2.83;1.98;;;;;;;;;;4916860;29;20410;-87
2022/10/17 04:34:15;;;;;;;6.95;2.10;;;;;;;;;;4916941;29;20080;-89
2022/10/17 04:36:41;;;;;;;5.97;2.25;;;;;;;;;;4916671;29;20036;-88
2022/10/17 04:39:07;;;;;;;5.07;1.98;;;;;;;;;;4916354;29;20040;-88
2022/10/17 04:41:34;;;;;;;3.33;1.80;;;;;;;;;;4916618;29;20060;-88
2022/10/17 04:44:00;;;;;;;4.10;1.95;;;;;;;;;;4916293;29;20402;-87
2022/10/17 04:46:27;;;;;;;3.45;1.90;;;;;;;;;;4916403;29;20039;-88
2022/10/17 04:48:53;;;;;;;2.95;1.75;;;;;;;;;;4916364;29;20040;-87
2022/10/17 04:51:19;;;;;;;3.28;1.88;;;;;;;;;;4916238;29;20036;-88
2022/10/17 04:54:07;;;;;;;2.85;1.83;;;;;;;;;;4915942;29;20115;-88
2022/10/17 04:56:34;;;;;;;4.68;1.75;;;;;;;;;;4900859;29;20039;-88
2022/10/17 04:58:59;;;;;;;3.97;1.80;;;;;;;;;;4916332;29;20036;-88
2022/10/17 05:01:25;;;;;;;6.63;1.83;;;;;;;;;;4916293;29;20043;-88
2022/10/17 05:03:52;;;;;;;4.10;1.70;;;;;;;;;;4916031;29;20047;-88
2022/10/17 05:06:23;;;;;;;4.25;1.73;;;;;;;;;;4916267;29;20152;-88
2022/10/17 05:09:08;;;;;;;5.50;1.70;;;;;;;;;;4902943;29;20099;-88
2022/10/17 05:11:33;;;;;;;3.88;1.77;;;;;;;;;;4917368;29;20028;-87
2022/10/17 05:14:00;;;;;;;5.40;1.80;;;;;;;;;;4915749;29;20470;-87
2022/10/17 05:16:28;;;;;;;4.72;1.60;;;;;;;;;;4915631;29;20045;-88
2022/10/17 05:18:56;;;;;;;2.78;1.50;;;;;;;;;;4915892;29;20032;-87
2022/10/17 05:21:23;;;;;;;4.10;1.80;;;;;;;;;;4916091;29;20032;-87
2022/10/17 05:23:50;;;;;;;3.05;1.67;;;;;;;;;;4916005;29;20393;-88
2022/10/17 05:26:16;;;;;;;4.85;1.80;;;;;;;;;;4915859;29;20036;-88
2022/10/17 05:28:42;;;;;;;3.67;1.70;;;;;;;;;;4900138;29;20032;-88
2022/10/17 05:31:09;;;;;;;2.95;1.80;;;;;;;;;;4915845;29;20043;-88
2022/10/17 05:33:36;;;;;;;2.72;1.70;;;;;;;;;;4915855;29;20044;-88
2022/10/17 05:36:02;;;;;;;3.53;2.28;;;;;;;;;;4915357;29;20036;-87
2022/10/17 05:38:27;;;;;;;4.90;1.60;;;;;;;;;;4915799;29;20043;-88
2022/10/17 05:41:01;;;;;;;2.67;1.70;;;;;;;;;;4915907;29;20036;-88
2022/10/17 05:43:27;;;;;;;1.92;1.52;;;;;;;;;;4916238;29;20047;-88
2022/10/17 05:45:54;;;;;;;3.78;2.47;;;;;;;;;;4919249;29;20032;-88
2022/10/17 05:48:21;;;;;;;3.70;1.95;;;;;;;;;;4919705;29;20043;-88
2022/10/17 05:50:47;;;;;;;4.07;2.13;;;;;;;;;;4903880;29;20040;-87
2022/10/17 05:53:15;;;;;;;3.65;1.90;;;;;;;;;;4919250;29;20481;-88
2022/10/17 05:55:54;;;;;;;4.90;2.10;;;;;;;;;;4919196;29;20032;-88
2022/10/17 05:58:20;;;;;;;3.97;1.73;;;;;;;;;;4918973;29;20095;-88
2022/10/17 06:00:48;;;;;;;4.80;1.75;;;;;;;;;;4903954;29;20132;-88
2022/10/17 06:03:20;;;;;;;3.72;2.08;;;;;;;;;;4918768;29;20064;-88
2022/10/17 06:05:51;;;;;;;2.63;1.63;;;;;;;;;;4919846;29;20504;-88
2022/10/17 06:08:17;;;;;;;7.15;2.00;;;;;;;;;;4903761;29;20044;-88
2022/10/17 06:10:47;;;;;;;3.28;1.65;;;;;;;;;;4919441;29;20028;-88
2022/10/17 06:13:13;;;;;;;5.25;2.00;;;;;;;;;;4920201;29;20040;-87
2022/10/17 06:15:39;;;;;;;2.50;1.83;;;;;;;;;;4919401;29;20485;-88
2022/10/17 06:18:06;;;;;;;2.95;1.80;;;;;;;;;;4919045;29;20078;-88
2022/10/17 06:20:32;;;;;;;3.00;1.70;;;;;;;;;;4920079;29;20446;-88
2022/10/17 06:22:58;;;;;;;2.95;1.58;;;;;;;;;;4919008;29;20036;-88
2022/10/17 06:25:52;;;;;;;3.20;1.75;;;;;;;;;;4919447;29;20039;-88
2022/10/17 06:28:17;;;;;;;6.60;1.83;;;;;;;;;;4918463;29;20075;-88
2022/10/17 06:30:43;;;;;;;2.92;1.75;;;;;;;;;;4919248;29;20183;-88
2022/10/17 06:33:10;;;;;;;3.95;1.80;;;;;;;;;;4920042;29;20039;-88
2022/10/17 06:35:35;;;;;;;3.28;1.90;;;;;;;;;;4919925;29;20118;-88
2022/10/17 06:38:02;;;;;;;2.53;1.90;;;;;;;;;;4920192;29;20032;-89
2022/10/17 06:40:29;;;;;;;2.78;1.80;;;;;;;;;;4918746;29;20044;-89
2022/10/17 06:42:55;;;;;;;6.75;1.80;;;;;;;;;;4919869;29;20554;-88
2022/10/17 06:45:47;;;;;;;3.95;1.90;;;;;;;;;;4918466;29;20111;-88
2022/10/17 06:48:20;;;;;;;4.53;1.90;;;;;;;;;;4919705;29;20092;-88
2022/10/17 06:50:58;;;;;;;2.97;1.90;;;;;;;;;;4918702;29;20040;-86
2022/10/17 06:53:29;;;;;;;2.50;1.73;;;;;;;;;;4917378;29;20036;-89
2022/10/17 06:56:10;;;;;;;6.18;1.70;;;;;;;;;;4916640;29;20074;-88
2022/10/17 06:58:45;;;;;;;4.15;1.90;;;;;;;;;;4917412;29;20064;-88
2022/10/17 07:01:29;;;;;;;2.08;1.52;;;;;;;;;;4904108;29;20050;-88
2022/10/17 07:03:57;;;;;;;2.20;1.70;;;;;;;;;;4917816;29;20051;-87
2022/10/17 07:06:25;;;;;;;4.15;2.72;;;;;;;;;;4918209;29;20040;-89
2022/10/17 07:08:54;;;;;;;5.68;2.20;;;;;;;;;;4917348;29;20032;-89
2022/10/17 07:11:21;;;;;;;6.18;2.45;;;;;;;;;;4917662;29;20046;-89
2022/10/17 07:13:49;;;;;;;3.33;1.70;;;;;;;;;;4917138;29;20519;-89
2022/10/17 07:16:15;;;;;;;2.60;1.80;;;;;;;;;;4917456;29;20043;-88
2022/10/17 07:18:43;;;;;;;2.40;1.60;;;;;;;;;;4917483;29;20043;-88
2022/10/17 07:21:09;;;;;;;2.90;1.70;;;;;;;;;;4917073;29;20584;-89
2022/10/17 07:23:36;;;;;;;5.22;1.77;;;;;;;;;;4917104;29;20032;-89
2022/10/17 07:26:07;;;;;;;2.78;1.50;;;;;;;;;;4918166;29;20119;-91
2022/10/17 07:28:36;;;;;;;4.78;1.70;;;;;;;;;;4918166;29;20405;-89
2022/10/17 07:31:13;;;;;;;6.57;1.90;;;;;;;;;;4917755;29;20067;-89
2022/10/17 07:33:40;;;;;;;3.65;1.85;;;;;;;;;;4901394;29;20035;-89
2022/10/17 07:36:06;;;;;;;5.50;2.10;;;;;;;;;;4932825;29;20036;-89
2022/10/17 07:38:32;;;;;;;3.53;2.00;;;;;;;;;;4917024;29;20042;-89
2022/10/17 07:41:00;;;;;;;4.45;2.13;;;;;;;;;;4901620;29;20039;-89
2022/10/17 07:43:27;;;;;;;5.38;2.45;;;;;;;;;;4901184;29;20489;-89
2022/10/17 07:45:53;;;;;;;4.32;2.47;;;;;;;;;;4932717;29;20382;-90
2022/10/17 07:48:20;;;;;;;6.25;2.50;;;;;;;;;;4917069;29;20537;-89
2022/10/17 07:50:47;;;;;;;3.92;2.10;;;;;;;;;;4916244;29;20075;-89
2022/10/17 07:53:13;;;;;;;4.57;2.60;;;;;;;;;;4931969;29;20055;-89
2022/10/17 07:55:40;;;;;;;4.90;2.50;;;;;;;;;;4917297;29;20108;-89
2022/10/17 07:58:07;;;;;;;4.13;2.20;;;;;;;;;;4917613;29;20382;-89
2022/10/17 08:00:33;;;;;;;5.40;1.85;;;;;;;;;;4916394;29;20040;-89
2022/10/17 08:02:58;;;;;;;4.28;2.05;;;;;;;;;;4917037;29;20111;-89
2022/10/17 08:05:24;;;;;;;3.05;1.90;;;;;;;;;;4916624;29;20123;-89
2022/10/17 08:07:49;;;;;;;3.20;1.98;;;;;;;;;;4915834;29;20040;-89
2022/10/17 08:10:16;;;;;;;4.88;1.75;;;;;;;;;;4917520;29;20036;-89
2022/10/17 08:12:42;;;;;;;4.78;2.10;;;;;;;;;;4917902;29;20047;-89
2022/10/17 08:15:08;;;;;;;5.00;3.25;;;;;;;;;;4917290;29;20043;-89
2022/10/17 08:17:36;;;;;;;7.45;2.90;;;;;;;;;;4915950;29;20063;-89
2022/10/17 08:20:03;;;;;;;6.25;3.10;;;;;;;;;;4915947;29;20040;-89
2022/10/17 08:22:29;;;;;;;5.82;3.40;;;;;;;;;;4915822;29;20123;-89
2022/10/17 08:24:54;;;;;;;6.05;4.00;;;;;;;;;;4917261;29;20095;-89
2022/10/17 08:27:23;;;;;;;4.72;1.80;;;;;;;;;;4916866;29;20052;-88
2022/10/17 08:29:54;;;;;;;2.45;1.88;;;;;;;;;;5126279;27;20463;-90
2022/10/17 08:32:22;;;;;;;3.80;2.13;;;;;;;;;;5110382;28;20480;-90
2022/10/17 08:34:48;;;;;;;8.57;2.13;;;;;;;;;;5109957;28;20449;-90
2022/10/17 08:37:13;;;;;;;3.35;2.20;;;;;;;;;;5091323;28;20123;-90
2022/10/17 08:39:42;;;;;;;3.40;2.60;;;;;;;;;;5110487;28;20028;-90
2022/10/17 08:42:56;;;;;;;2.47;2.00;;;;;;;;;;5110521;28;20070;-90
2022/10/17 08:45:43;;;;;;;6.47;3.17;;;;;;;;;;5077784;28;20048;-90
2022/10/17 08:48:14;;;;;;;4.25;1.85;;;;;;;;;;5110176;28;20031;-89
2022/10/17 08:50:42;;;;;;;2.92;2.00;;;;;;;;;;5110597;28;20111;-90
2022/10/17 08:53:14;;;;;;;4.03;2.70;;;;;;;;;;5109140;28;20032;-90
2022/10/17 08:55:44;;;;;;;3.72;2.25;;;;;;;;;;5110199;28;20032;-89
2022/10/17 08:58:22;;;;;;;4.35;1.70;;;;;;;;;;5109915;28;20024;-90
2022/10/17 09:01:02;;;;;;;6.00;2.08;;;;;;;;;;5110322;28;20042;-89
2022/10/17 09:04:10;;;;;;;3.35;2.20;;;;;;;;;;5091917;28;20036;-89
2022/10/17 09:06:39;;;;;;;3.65;1.80;;;;;;;;;;5097289;28;20063;-91
2022/10/17 09:09:26;;;;;;;3.42;2.00;;;;;;;;;;5109596;28;20123;-90
2022/10/17 09:12:09;;;;;;;4.38;1.90;;;;;;;;;;5107752;28;20404;-90
2022/10/17 09:15:10;;;;;;;2.47;1.80;;;;;;;;;;5108598;28;20032;-90
2022/10/17 09:17:38;;;;;;;4.65;2.00;;;;;;;;;;5070146;28;20150;-90
2022/10/17 09:20:13;;;;;;;3.53;1.80;;;;;;;;;;5105563;28;20048;-90
2022/10/17 09:22:50;;;;;;;5.43;2.00;;;;;;;;;;5109972;28;20032;-90
2022/10/17 09:25:19;;;;;;;4.60;2.00;;;;;;;;;;5109473;28;20028;-90
2022/10/17 09:27:48;;;;;;;6.45;2.42;;;;;;;;;;5108082;28;20020;-90
2022/10/17 09:30:35;;;;;;;3.38;2.15;;;;;;;;;;5109595;28;20031;-90
2022/10/17 09:33:10;;;;;;;4.03;1.90;;;;;;;;;;5108162;28;20040;-90
2022/10/17 09:35:37;;;;;;;2.25;1.60;;;;;;;;;;5108341;28;20110;-91
2022/10/17 09:38:03;;;;;;;2.25;1.50;;;;;;;;;;5108131;28;20027;-91
2022/10/17 09:40:33;;;;;;;2.22;1.48;;;;;;;;;;5099771;28;20036;-90
2022/10/17 09:43:04;;;;;;;3.35;1.60;;;;;;;;;;5095624;28;20028;-90
2022/10/17 09:45:32;;;;;;;4.32;1.48;;;;;;;;;;5095823;28;20080;-91
2022/10/17 09:48:15;;;;;;;4.32;1.65;;;;;;;;;;5094419;28;20177;-91
2022/10/17 09:50:43;;;;;;;4.00;1.40;;;;;;;;;;5094548;28;20043;-91
2022/10/17 09:53:26;;;;;;;2.42;1.63;;;;;;;;;;5094350;28;20043;-91
2022/10/17 09:56:01;;;;;;;3.90;1.60;;;;;;;;;;5095074;22;20041;-85
2022/10/17 09:58:46;;;;;;;4.82;1.60;;;;;;;;;;5060435;28;20517;-84
2022/10/17 10:01:28;;;;;;;1.70;1.50;;;;;;;;;;5062989;28;20033;-86
2022/10/17 10:04:11;;;;;;;3.22;1.42;;;;;;;;;;5063384;28;20116;-85
2022/10/17 10:06:38;;;;;;;3.40;1.25;;;;;;;;;;5044036;28;20063;-85
2022/10/17 10:09:05;;;;;;;6.53;3.90;;;;;;;;;;5044739;28;20398;-84
2022/10/17 10:11:43;;;;;;;5.28;3.50;;;;;;;;;;5046530;28;20052;-86
2022/10/17 10:14:28;;;;;;;2.83;2.00;;;;;;;;;;5046452;28;20045;-84
2022/10/17 10:16:54;;;;;;;3.67;1.58;;;;;;;;;;5061793;28;20033;-84
2022/10/17 10:19:30;;;;;;;2.95;1.80;;;;;;;;;;5044674;28;20017;-84
2022/10/17 10:22:16;;;;;;;2.95;1.60;;;;;;;;;;5053634;28;20095;-85
2022/10/17 10:24:42;;;;;;;3.00;1.50;;;;;;;;;;5037754;28;20176;-83
2022/10/17 10:27:15;;;;;;;2.30;1.67;;;;;;;;;;5039150;28;20112;-84
2022/10/17 10:29:42;;;;;;;3.67;1.60;;;;;;;;;;5038111;28;20045;-82
2022/10/17 10:32:22;;;;;;;4.45;1.67;;;;;;;;;;5039139;28;20029;-85
2022/10/17 10:34:51;;;;;;;3.67;1.50;;;;;;;;;;5036484;28;20045;-83
2022/10/17 10:37:27;;;;;;;3.08;1.92;;;;;;;;;;5038761;28;20183;-83
2022/10/17 10:39:56;;;;;;;4.15;2.00;;;;;;;;;;5053817;28;20029;-84
2022/10/17 10:42:31;;;;;;;4.35;2.10;;;;;;;;;;5038226;28;20037;-84
2022/10/17 10:45:00;;;;;;;4.05;2.20;;;;;;;;;;5053141;28;20029;-84
2022/10/17 10:47:28;;;;;;;8.52;2.58;;;;;;;;;;5038545;28;20075;-85
2022/10/17 10:50:16;;;;;;;3.90;2.40;;;;;;;;;;5038638;28;20038;-85
2022/10/17 10:52:46;;;;;;;4.03;2.03;;;;;;;;;;5037553;28;20497;-82
2022/10/17 10:55:35;;;;;;;5.05;2.70;;;;;;;;;;5039992;28;20025;-82
2022/10/17 10:58:22;;;;;;;8.75;5.88;;;;;;;;;;5038458;28;20029;-82
2022/10/17 11:00:49;;;;;;;3.55;2.40;;;;;;;;;;5039710;28;20076;-84
2022/10/17 11:03:22;;;;;;;3.50;2.40;;;;;;;;;;5039284;28;20040;-82
2022/10/17 11:05:50;;;;;;;3.10;2.22;;;;;;;;;;5037048;28;20389;-82
2022/10/17 11:08:30;;;;;;;3.95;2.30;;;;;;;;;;5037464;28;20079;-83
2022/10/17 11:11:26;;;;;;;4.72;2.20;;;;;;;;;;5037600;28;20153;-83
2022/10/17 11:14:04;;;;;;;4.93;2.00;;;;;;;;;;5051932;28;20080;-83
2022/10/17 11:16:55;;;;;;;5.55;2.20;;;;;;;;;;5036657;28;20044;-83
2022/10/17 11:19:59;;;;;;;4.82;2.38;;;;;;;;;;5034139;28;20499;-83
2022/10/17 11:22:32;;;;;;;4.32;2.20;;;;;;;;;;5036885;28;20033;-83
2022/10/17 11:25:03;;;;;;;6.10;2.20;;;;;;;;;;5036708;28;20041;-84
2022/10/17 11:27:29;;;;;;;3.47;2.05;;;;;;;;;;5036756;28;20517;-84
2022/10/17 11:29:56;;;;;;;3.88;2.15;;;;;;;;;;5036292;28;20072;-83
2022/10/17 11:32:33;;;;;;;3.42;1.90;;;;;;;;;;5038898;28;20029;-83
2022/10/17 11:35:04;;;;;;;4.55;2.10;;;;;;;;;;5052375;28;20045;-81
2022/10/17 11:37:39;;;;;;;4.70;2.22;;;;;;;;;;5035842;28;20030;-83
2022/10/17 11:40:14;;;;;;;2.90;2.25;;;;;;;;;;5037076;28;20029;-83
2022/10/17 11:42:52;;;;;;;3.83;2.33;;;;;;;;;;5053006;28;20041;-83
2022/10/17 11:45:21;;;;;;;3.85;2.67;;;;;;;;;;5037526;28;20049;-84
2022/10/17 11:47:54;;;;;;;3.53;2.22;;;;;;;;;;5040066;28;20090;-83
2022/10/17 11:50:41;;;;;;;4.40;2.40;;;;;;;;;;5039946;28;20112;-84
2022/10/17 11:53:26;;;;;;;5.07;2.35;;;;;;;;;;5038849;28;20068;-83
2022/10/17 11:55:53;;;;;;;4.45;2.50;;;;;;;;;;5040395;28;20403;-84
2022/10/17 11:58:24;;;;;;;5.88;2.22;;;;;;;;;;5055763;28;20029;-83
2022/10/17 12:00:59;;;;;;;3.55;2.40;;;;;;;;;;5054016;28;20399;-86
2022/10/17 12:03:55;;;;;;;6.72;2.20;;;;;;;;;;5039188;28;20040;-85
2022/10/17 12:06:37;;;;;;;3.15;2.38;;;;;;;;;;5039110;28;20045;-83
2022/10/17 12:09:18;;;;;;;4.57;2.15;;;;;;;;;;5038230;28;20482;-81
2022/10/17 12:11:59;;;;;;;4.13;2.40;;;;;;;;;;5035251;28;20080;-84
2022/10/17 12:14:39;;;;;;;6.10;2.30;;;;;;;;;;5052237;28;20037;-81
2022/10/17 12:17:27;;;;;;;6.10;2.53;;;;;;;;;;5037128;28;20041;-82
2022/10/17 12:19:53;;;;;;;4.95;2.60;;;;;;;;;;5036474;28;20394;-82
2022/10/17 12:22:19;;;;;;;4.13;2.45;;;;;;;;;;5038032;28;20033;-82
2022/10/17 12:24:57;;;;;;;7.07;2.40;;;;;;;;;;5037852;28;20060;-83
2022/10/17 12:27:42;;;;;;;4.63;2.38;;;;;;;;;;5037272;28;20038;-81
2022/10/17 12:30:10;;;;;;;3.47;2.42;;;;;;;;;;5037634;28;20037;-81
2022/10/17 12:32:37;;;;;;;3.20;2.33;;;;;;;;;;5053002;28;20029;-82
2022/10/17 12:35:03;;;;;;;3.63;2.60;;;;;;;;;;5036303;28;20037;-84
2022/10/17 12:37:44;;;;;;;3.05;2.40;;;;;;;;;;5052984;28;20030;-83
2022/10/17 12:40:38;;;;;;;5.32;2.50;;;;;;;;;;5038148;28;20048;-84
2022/10/17 12:43:12;;;;;;;2.80;2.25;;;;;;;;;;5051581;28;20030;-83
2022/10/17 12:45:45;;;;;;;4.35;2.60;;;;;;;;;;5039062;28;20033;-83
2022/10/17 12:48:10;;;;;;;3.07;2.37;;;;;;;;;;5035313;28;20422;-81
2022/10/17 12:51:09;;;;;;;3.22;2.40;;;;;;;;;;5038764;28;20034;-81
2022/10/17 12:54:07;;;;;;;3.20;2.40;;;;;;;;;;5034224;28;20033;-81
2022/10/17 12:56:37;;;;;;;3.88;2.33;;;;;;;;;;5035000;28;20041;-81
2022/10/17 12:59:28;;;;;;;2.90;2.38;;;;;;;;;;5034669;28;20033;-81
2022/10/17 13:02:00;;;;;;;4.43;2.30;;;;;;;;;;5011973;28;20136;-81
2022/10/17 13:04:28;;;;;;;4.13;2.30;;;;;;;;;;5034608;28;20041;-82
2022/10/17 13:06:58;;;;;;;4.03;2.20;;;;;;;;;;5033685;28;20029;-81
2022/10/17 13:09:29;;;;;;;4.07;2.25;;;;;;;;;;5033128;28;20041;-81
2022/10/17 13:11:58;;;;;;;3.90;2.40;;;;;;;;;;5050106;28;20040;-81
2022/10/17 13:14:25;;;;;;;7.03;2.47;;;;;;;;;;5032486;28;20037;-81
2022/10/17 13:17:05;;;;;;;4.05;2.60;;;;;;;;;;5038336;28;20029;-82
2022/10/17 13:19:38;;;;;;;3.25;2.50;;;;;;;;;;5037279;28;20029;-82
2022/10/17 13:22:23;;;;;;;3.65;2.30;;;;;;;;;;5038605;28;20116;-82
2022/10/17 13:24:50;;;;;;;5.82;2.45;;;;;;;;;;5036697;28;20046;-83
2022/10/17 13:27:27;;;;;;;4.07;2.50;;;;;;;;;;5036856;28;20029;-81
2022/10/17 13:29:55;;;;;;;4.05;2.30;;;;;;;;;;5038265;28;20044;-81
2022/10/17 13:32:20;;;;;;;3.90;2.20;;;;;;;;;;5037953;28;20038;-81
2022/10/17 13:35:10;;;;;;;4.00;2.30;;;;;;;;;;5037887;28;20036;-81
2022/10/17 13:37:39;;;;;;;4.93;2.47;;;;;;;;;;5036931;28;20033;-81
2022/10/17 13:40:05;;;;;;;4.78;2.45;;;;;;;;;;5038342;28;20064;-80
2022/10/17 13:42:37;;;;;;;5.10;2.50;;;;;;;;;;5036519;28;20040;-81
2022/10/17 13:45:14;;;;;;;5.27;2.40;;;;;;;;;;5036284;28;20036;-82
2022/10/17 13:47:40;;;;;;;5.05;2.45;;;;;;;;;;5038615;28;20334;-81
2022/10/17 13:50:06;;;;;;;4.22;2.40;;;;;;;;;;5053898;28;20406;-82
2022/10/17 13:52:32;;;;;;;9.30;2.40;;;;;;;;;;5039126;28;20036;-81
2022/10/17 13:55:12;;;;;;;3.05;2.40;;;;;;;;;;5037415;28;20033;-84
2022/10/17 13:57:37;;;;;;;5.07;2.60;;;;;;;;;;5038383;28;20037;-83
2022/10/17 14:00:09;;;;;;;3.65;2.38;;;;;;;;;;5038934;28;20045;-83
2022/10/17 14:02:39;;;;;;;3.90;2.60;;;;;;;;;;5056071;28;20037;-84
2022/10/17 14:05:06;;;;;;;3.95;2.65;;;;;;;;;;5055439;28;20041;-82
2022/10/17 14:07:56;;;;;;;2.80;2.17;;;;;;;;;;5043213;28;20045;-83
2022/10/17 14:10:31;;;;;;;3.58;2.33;;;;;;;;;;5046860;28;20041;-83
2022/10/17 14:12:57;;;;;;;7.80;2.50;;;;;;;;;;5043276;28;20395;-85
2022/10/17 14:15:28;;;;;;;5.38;2.75;;;;;;;;;;5042039;28;20437;-85
2022/10/17 14:18:00;;;;;;;3.92;2.45;;;;;;;;;;5043236;28;20033;-85
2022/10/17 14:20:28;;;;;;;4.95;2.30;;;;;;;;;;5043566;28;20644;-85
2022/10/17 14:22:54;;;;;;;6.80;2.70;;;;;;;;;;5044337;28;20505;-83
2022/10/17 14:25:34;;;;;;;4.60;2.75;;;;;;;;;;5044881;28;20064;-83
2022/10/17 14:28:02;;;;;;;4.20;2.50;;;;;;;;;;5043850;28;20060;-84
2022/10/17 14:30:35;;;;;;;3.78;2.53;;;;;;;;;;5043466;28;20021;-83
2022/10/17 14:33:02;;;;;;;4.03;2.70;;;;;;;;;;5044839;28;20100;-85
2022/10/17 14:35:28;;;;;;;3.90;2.47;;;;;;;;;;5044323;28;20041;-84
2022/10/17 14:38:00;;;;;;;4.35;2.40;;;;;;;;;;5044830;28;20068;-85
2022/10/17 14:40:27;;;;;;;4.57;2.47;;;;;;;;;;5044687;28;20037;-83
2022/10/17 14:42:56;;;;;;;4.65;2.63;;;;;;;;;;5043742;28;20029;-85
2022/10/17 14:45:35;;;;;;;3.15;2.35;;;;;;;;;;5044904;28;20108;-85
2022/10/17 14:48:08;;;;;;;5.55;2.58;;;;;;;;;;5043088;28;20046;-84
2022/10/17 14:50:35;;;;;;;6.22;2.58;;;;;;;;;;5045260;28;20040;-85
2022/10/17 14:53:03;;;;;;;4.65;2.40;;;;;;;;;;5043518;28;20099;-86
2022/10/17 14:55:30;;;;;;;3.13;2.45;;;;;;;;;;5044171;28;20449;-85
2022/10/17 14:57:56;;;;;;;6.78;3.00;;;;;;;;;;5027474;28;20039;-85
2022/10/17 15:00:22;;;;;;;4.82;2.47;;;;;;;;;;5046486;28;20120;-87
2022/10/17 15:02:49;;;;;;;4.53;2.65;;;;;;;;;;5045228;28;20068;-86
2022/10/17 15:05:16;;;;;;;3.38;2.20;;;;;;;;;;5042850;28;20025;-86
2022/10/17 15:07:41;;;;;;;4.95;2.45;;;;;;;;;;5042685;28;20482;-85
2022/10/17 15:10:26;;;;;;;5.32;2.63;;;;;;;;;;5043095;28;20032;-84
2022/10/17 15:12:51;;;;;;;2.60;2.38;;;;;;;;;;5043866;28;20029;-84